Terminal Aerodrome Forecast
Issued by NWS Jackson, MS

Home | Current Version | Previous Version | Text Only | Print | Product List | Glossary On
Versions: 1 2 3 4 5 6 7 8 9 10 11 12 13 14 15 16 17 18 19 20 21
000
FTUS44 KJAN 060520
TAFGLH
TAF
KGLH 060520Z 0606/0706 00000KT P6SM SKC
     FM060900 19003KT 5SM BR BKN015
     FM061500 22005KT P6SM OVC025
     FM061600 22008KT P6SM SCT040
     FM062000 21007KT P6SM VCTS BKN050CB
     FM070000 19010KT P6SM FEW250=

USA.gov is the U.S. government's official web portal to all federal, state and local government web resources and services.